Flight Track Log - Related Links

Times and Time Zones

All times are in EDT time to prevent confusion due to time zone crossing. See the N713WT flight status page for this flight to view local times or setup timezone preferences in your user account.

Time Position Orientation Groundspeed Altitude Reporting Facility
EDT Latitude Longitude Course Direction KTS MPH feet Rate Location/Type
Sun 01:58:36 PM 29.8975 -98.1811 89° East 210 242 13,500  Level Houston Center
Sun 01:59:36 PM 29.8981 -98.1236 95° East 199 229 13,500 -50 Level Houston Center
Sun 02:00:36 PM 29.8931 -98.0517 96° East 199 229 13,400  Descending Houston Center
Sun 02:01:36 PM 29.8875 -97.9939 95° East 199 229 13,500 50 Climbing Houston Center
Sun 02:02:36 PM 29.8825 -97.9217 99° East 199 229 13,500  Level Houston Center
Sun 02:03:36 PM 29.8747 -97.8639 102° East 199 229 13,500  Level Houston Center
Sun 02:04:36 PM 29.8614 -97.7911 98° East 204 235 13,500  Level Houston Center
Sun 02:05:36 PM 29.8536 -97.7308 93° East 204 235 13,500  Level Houston Center
Sun 02:06:36 PM 29.8506 -97.6614 85° East 199 229 13,500  Level Houston Center
Sun 02:07:36 PM 29.8553 -97.6017 91° East 199 229 13,500  Level Houston Center
Sun 02:08:36 PM 29.8539 -97.5347 89° East 199 229 13,500  Level Houston Center
Sun 02:09:36 PM 29.8547 -97.4700 93° East 199 229 13,500 50 Level Houston Center
Sun 02:10:36 PM 29.8514 -97.4006 98° East 199 229 13,600 -50 Climbing Houston Center
Sun 02:11:36 PM 29.8436 -97.3331 99° East 205 236 13,400 -50 Descending Houston Center
Sun 02:12:36 PM 29.8339 -97.2656 100° East 205 236 13,500  Climbing Houston Center
Sun 02:13:36 PM 29.8242 -97.2028 92° East 205 236 13,400  Descending Houston Center
Sun 02:14:36 PM 29.8225 -97.1356 87° East 205 236 13,500 -150 Climbing Houston Center
Sun 02:15:36 PM 29.8253 -97.0689 89° East 200 230 13,100 -450 Descending Houston Center
Sun 02:16:36 PM 29.8258 -96.9994 95° East 200 230 12,600 -500 Descending Houston Center
Sun 02:17:36 PM 29.8203 -96.9322 95° East 205 236 12,100 -600 Descending Houston Center
Sun 02:18:36 PM 29.8147 -96.8600 98° East 210 242 11,400 -600 Descending Houston Center
Sun 02:19:16 PM 29.8100 -96.8192 92° East 219 252 11,100 -438 Descending Houston Center
Sun 02:20:12 PM 29.8083 -96.7522 99° East 216 249 10,700 -471 Descending Houston Center
Sun 02:21:36 PM 29.7953 -96.6558 103° East 215 247 10,000 -516 Descending Houston Center
Sun 02:22:20 PM 29.7864 -96.6122 98° East 211 243 9,600 -679 Descending Houston Center
Sun 02:23:22 PM 29.7783 -96.5425 97° East 211 243 8,800 -683 Descending Houston Center
Sun 02:24:23 PM 29.7706 -96.4703 94° East 216 249 8,200 -541 Descending Houston Center
Sun 02:25:24 PM 29.7667 -96.4008 95° East 207 238 7,700 -558 Descending Houston Center
Sun 02:26:32 PM 29.7611 -96.3264 92° East 209 241 7,000 -600 Descending Houston Center
Sun 02:27:34 PM 29.7592 -96.2569 95° East 207 238 6,400 -615 Descending Houston Center
Sun 02:28:29 PM 29.7550 -96.1972 94° East 210 242 5,800 -621 Descending Houston Center
Sun 02:29:30 PM 29.7508 -96.1300 103° East 208 239 5,200 -492 Descending Houston Center
Sun 02:30:31 PM 29.7383 -96.0672 103° East 201 231 4,800 -381 Descending Houston Center
Sun 02:31:36 PM 29.7258 -96.0044 98° East 205 236 4,400 -439 Descending Houston Center
Sun 02:32:34 PM 29.7175 -95.9397 99° East 195 224 3,900 -450 Descending Houston Center
Sun 02:33:36 PM 29.7089 -95.8772 97° East 194 223 3,500 -293 Descending Houston Center
Sun 02:34:37 PM 29.7025 -95.8147 95° East 194 223 3,300 -393 Descending Houston Center
Sun 02:35:38 PM 29.6981 -95.7525 97° East 194 223 2,700 -344 Descending Houston Center
Sun 02:36:39 PM 29.6917 -95.6900 100° East 193 222 2,600 -98 Descending Houston Center
Sun 02:37:41 PM 29.6828 -95.6322 111° Southeast 182 209 2,500 -146 Descending Houston Center
Sun 02:38:42 PM 29.6656 -95.5814 98° East 179 206 2,300 -234 Descending Houston Center
Sun 02:39:49 PM 29.6569 -95.5142 96° East 178 205 2,000 -195 Descending Houston Center
Sun 02:40:45 PM 29.6522 -95.4639 98° East 176 203 1,900 -203 Descending Houston Center
Sun 02:41:47 PM 29.6453 -95.4086 107° East 173 199 1,600 -341 Descending Houston Center
Sun 02:42:48 PM 29.6303 -95.3531 100° East 169 194 1,200 -541 Descending Houston Center
Sun 02:43:49 PM 29.6231 -95.3075 100° East 138 159 500 -689 Descending Houston Center

Login

Don't have an account? Register now (free) for customized features, flight alerts, and more!